Hlavní strana
METAR-TAF:

METAR-TAF

Letiště :

Kristianstad, Švédsko

zeměpisná šířka: 55-55N, zeměpisná délka: 014-05E, výška: 23 m

Aktuální stav počasí

Zpráva byla vytvořena před 28 minutami, v 02:20 UTC
Západoseverozápadní vítr 12 kt
Teplota 4°C
Vlhkost vzduchu 81%
Tlak 1025 hPa
Viditelnost 10 km a více

METAR: ESMK 240220Z AUTO 29012KT 9999 NCD 04/01 Q1025

Čas: 03:48 (02:48 UTC)


TAF: chybějící

Stav a předpovědi počasí z více než 4 000 letišť (zprávy METAR a TAF).

Červené a žluté tečky na mapě představují dostupné meteorologické stanice.

Když kurzor umístíte na tečku, zobrazí se název stanice.

Pak kliknutím zobrazíte stav a předpověď počasí.

Chcete-li změnit mapu, kliknutím na zelené tlačítko se znaménkem +mapu přiblížíte, kliknutím na zelené tlačítko se znaménkem – mapu oddálíte a kliknutím na zelené šipky přejdete na sousední mapy.


METAR-TAF: